sensor_id;sensor_type;location;lat;lon;timestamp;temperature;humidity
16229;DHT22;8222;51.462;12.630;2022-12-07T00:01:21;5.60;99.90
16229;DHT22;8222;51.462;12.630;2022-12-07T00:03:49;6.40;99.90
16229;DHT22;8222;51.462;12.630;2022-12-07T00:06:16;5.70;99.90
16229;DHT22;8222;51.462;12.630;2022-12-07T00:08:44;5.60;99.90
16229;DHT22;8222;51.462;12.630;2022-12-07T00:11:13;5.60;99.90
16229;DHT22;8222;51.462;12.630;2022-12-07T00:13:39;5.70;99.90
16229;DHT22;8222;51.462;12.630;2022-12-07T00:16:17;5.80;99.90
16229;DHT22;8222;51.462;12.630;2022-12-07T00:18:46;5.70;99.90
16229;DHT22;8222;51.462;12.630;2022-12-07T00:21:25;5.80;99.90
16229;DHT22;8222;51.462;12.630;2022-12-07T00:23:52;5.80;99.90
16229;DHT22;8222;51.462;12.630;2022-12-07T00:26:23;5.60;99.90
16229;DHT22;8222;51.462;12.630;2022-12-07T00:28:51;5.60;99.90
16229;DHT22;8222;51.462;12.630;2022-12-07T00:31:21;5.60;99.90
16229;DHT22;8222;51.462;12.630;2022-12-07T00:33:47;5.70;99.90
16229;DHT22;8222;51.462;12.630;2022-12-07T00:36:17;5.50;99.90
16229;DHT22;8222;51.462;12.630;2022-12-07T00:38:46;5.40;99.90
16229;DHT22;8222;51.462;12.630;2022-12-07T00:41:19;5.40;99.90
16229;DHT22;8222;51.462;12.630;2022-12-07T00:43:48;5.30;99.90
16229;DHT22;8222;51.462;12.630;2022-12-07T00:46:15;5.40;99.90
16229;DHT22;8222;51.462;12.630;2022-12-07T00:48:41;5.30;99.90
16229;DHT22;8222;51.462;12.630;2022-12-07T00:51:08;5.20;99.90
16229;DHT22;8222;51.462;12.630;2022-12-07T00:53:37;5.10;99.90
16229;DHT22;8222;51.462;12.630;2022-12-07T00:56:09;5.70;99.90
16229;DHT22;8222;51.462;12.630;2022-12-07T00:58:35;5.10;99.90
16229;DHT22;8222;51.462;12.630;2022-12-07T01:01:02;5.20;99.90
16229;DHT22;8222;51.462;12.630;2022-12-07T01:03:29;5.30;99.90
16229;DHT22;8222;51.462;12.630;2022-12-07T01:05:55;5.20;99.90
16229;DHT22;8222;51.462;12.630;2022-12-07T01:08:22;5.10;99.90
16229;DHT22;8222;51.462;12.630;2022-12-07T01:10:49;5.10;99.90
16229;DHT22;8222;51.462;12.630;2022-12-07T01:13:15;5.10;99.90
16229;DHT22;8222;51.462;12.630;2022-12-07T01:15:42;5.10;99.90
16229;DHT22;8222;51.462;12.630;2022-12-07T01:18:08;5.00;99.90
16229;DHT22;8222;51.462;12.630;2022-12-07T01:20:35;5.00;99.90
16229;DHT22;8222;51.462;12.630;2022-12-07T01:23:01;5.10;99.90
16229;DHT22;8222;51.462;12.630;2022-12-07T01:25:28;5.00;99.90
16229;DHT22;8222;51.462;12.630;2022-12-07T01:27:54;4.90;99.90
16229;DHT22;8222;51.462;12.630;2022-12-07T01:30:22;5.00;99.90
16229;DHT22;8222;51.462;12.630;2022-12-07T01:32:47;4.90;99.90
16229;DHT22;8222;51.462;12.630;2022-12-07T01:35:13;4.80;99.90
16229;DHT22;8222;51.462;12.630;2022-12-07T01:37:39;4.90;99.90
16229;DHT22;8222;51.462;12.630;2022-12-07T01:40:09;4.90;99.90
16229;DHT22;8222;51.462;12.630;2022-12-07T01:42:35;4.90;99.90
16229;DHT22;8222;51.462;12.630;2022-12-07T01:47:52;4.80;99.90
16229;DHT22;8222;51.462;12.630;2022-12-07T01:50:19;4.80;99.90
16229;DHT22;8222;51.462;12.630;2022-12-07T01:52:49;4.90;99.90
16229;DHT22;8222;51.462;12.630;2022-12-07T01:55:18;4.80;99.90
16229;DHT22;8222;51.462;12.630;2022-12-07T01:57:50;4.50;99.90
16229;DHT22;8222;51.462;12.630;2022-12-07T02:00:18;4.40;99.90
16229;DHT22;8222;51.462;12.630;2022-12-07T02:02:46;4.30;99.90
16229;DHT22;8222;51.462;12.630;2022-12-07T02:05:15;4.30;99.90
16229;DHT22;8222;51.462;12.630;2022-12-07T02:07:42;4.20;99.90
16229;DHT22;8222;51.462;12.630;2022-12-07T02:10:19;4.30;99.90
16229;DHT22;8222;51.462;12.630;2022-12-07T02:12:51;4.10;99.90
16229;DHT22;8222;51.462;12.630;2022-12-07T02:15:20;4.00;99.90
16229;DHT22;8222;51.462;12.630;2022-12-07T02:17:59;4.20;99.90
16229;DHT22;8222;51.462;12.630;2022-12-07T02:31:19;3.70;99.90
16229;DHT22;8222;51.462;12.630;2022-12-07T02:33:54;3.60;99.90
16229;DHT22;8222;51.462;12.630;2022-12-07T02:36:31;3.70;99.90
16229;DHT22;8222;51.462;12.630;2022-12-07T02:42:02;3.80;99.90
16229;DHT22;8222;51.462;12.630;2022-12-07T02:44:30;3.90;99.90
16229;DHT22;8222;51.462;12.630;2022-12-07T02:47:09;3.90;99.90
16229;DHT22;8222;51.462;12.630;2022-12-07T02:49:37;3.90;99.90
16229;DHT22;8222;51.462;12.630;2022-12-07T02:52:06;3.90;99.90
16229;DHT22;8222;51.462;12.630;2022-12-07T02:54:31;4.00;99.90
16229;DHT22;8222;51.462;12.630;2022-12-07T02:57:14;3.60;99.90
16229;DHT22;8222;51.462;12.630;2022-12-07T03:00:06;3.60;99.90
16229;DHT22;8222;51.462;12.630;2022-12-07T03:02:58;3.60;99.90
16229;DHT22;8222;51.462;12.630;2022-12-07T03:08:37;4.40;99.90
16229;DHT22;8222;51.462;12.630;2022-12-07T03:11:07;3.60;99.90
16229;DHT22;8222;51.462;12.630;2022-12-07T03:16:27;3.70;99.90
16229;DHT22;8222;51.462;12.630;2022-12-07T03:19:03;3.60;99.90
16229;DHT22;8222;51.462;12.630;2022-12-07T03:21:39;3.60;99.90
16229;DHT22;8222;51.462;12.630;2022-12-07T03:24:14;3.70;99.90
16229;DHT22;8222;51.462;12.630;2022-12-07T03:26:51;3.60;99.90
16229;DHT22;8222;51.462;12.630;2022-12-07T03:29:23;3.70;99.90
16229;DHT22;8222;51.462;12.630;2022-12-07T03:32:28;3.60;99.90
16229;DHT22;8222;51.462;12.630;2022-12-07T03:37:26;3.60;99.90
16229;DHT22;8222;51.462;12.630;2022-12-07T03:42:38;3.70;99.90
16229;DHT22;8222;51.462;12.630;2022-12-07T03:45:04;4.00;99.90
16229;DHT22;8222;51.462;12.630;2022-12-07T03:50:14;4.00;99.90
16229;DHT22;8222;51.462;12.630;2022-12-07T03:52:50;3.90;99.90
16229;DHT22;8222;51.462;12.630;2022-12-07T03:55:25;4.00;99.90
16229;DHT22;8222;51.462;12.630;2022-12-07T03:57:55;4.00;99.90
16229;DHT22;8222;51.462;12.630;2022-12-07T04:00:25;4.10;99.90
16229;DHT22;8222;51.462;12.630;2022-12-07T04:02:52;4.20;99.90
16229;DHT22;8222;51.462;12.630;2022-12-07T04:05:20;4.00;99.90
16229;DHT22;8222;51.462;12.630;2022-12-07T04:07:46;4.20;99.90
16229;DHT22;8222;51.462;12.630;2022-12-07T04:10:12;4.20;99.90
16229;DHT22;8222;51.462;12.630;2022-12-07T04:12:46;4.20;99.90
16229;DHT22;8222;51.462;12.630;2022-12-07T04:15:14;4.30;99.90
16229;DHT22;8222;51.462;12.630;2022-12-07T04:17:42;4.30;99.90
16229;DHT22;8222;51.462;12.630;2022-12-07T04:20:09;4.40;99.90
16229;DHT22;8222;51.462;12.630;2022-12-07T04:22:34;4.30;99.90
16229;DHT22;8222;51.462;12.630;2022-12-07T04:25:00;4.30;99.90
16229;DHT22;8222;51.462;12.630;2022-12-07T04:27:26;4.30;99.90
16229;DHT22;8222;51.462;12.630;2022-12-07T04:29:51;4.40;99.90
16229;DHT22;8222;51.462;12.630;2022-12-07T04:32:21;4.40;99.90
16229;DHT22;8222;51.462;12.630;2022-12-07T04:34:46;4.20;99.90
16229;DHT22;8222;51.462;12.630;2022-12-07T04:37:12;4.20;99.90
16229;DHT22;8222;51.462;12.630;2022-12-07T04:39:38;4.20;99.90
16229;DHT22;8222;51.462;12.630;2022-12-07T04:42:04;5.00;99.90
16229;DHT22;8222;51.462;12.630;2022-12-07T04:44:30;4.40;99.90
16229;DHT22;8222;51.462;12.630;2022-12-07T04:46:56;4.50;99.90
16229;DHT22;8222;51.462;12.630;2022-12-07T04:49:24;4.50;99.90
16229;DHT22;8222;51.462;12.630;2022-12-07T04:51:50;4.50;99.90
16229;DHT22;8222;51.462;12.630;2022-12-07T04:54:20;4.30;99.90
16229;DHT22;8222;51.462;12.630;2022-12-07T04:56:46;4.30;99.90
16229;DHT22;8222;51.462;12.630;2022-12-07T04:59:12;4.40;99.90
16229;DHT22;8222;51.462;12.630;2022-12-07T05:01:38;4.50;99.90
16229;DHT22;8222;51.462;12.630;2022-12-07T05:04:04;4.60;99.90
16229;DHT22;8222;51.462;12.630;2022-12-07T05:06:30;4.50;99.90
16229;DHT22;8222;51.462;12.630;2022-12-07T05:08:55;4.50;99.90
16229;DHT22;8222;51.462;12.630;2022-12-07T05:11:21;4.50;99.90
16229;DHT22;8222;51.462;12.630;2022-12-07T05:14:10;4.50;99.90
16229;DHT22;8222;51.462;12.630;2022-12-07T05:16:36;4.50;99.90
16229;DHT22;8222;51.462;12.630;2022-12-07T05:19:03;4.50;99.90
16229;DHT22;8222;51.462;12.630;2022-12-07T05:21:29;4.50;99.90
16229;DHT22;8222;51.462;12.630;2022-12-07T05:23:55;4.60;99.90
16229;DHT22;8222;51.462;12.630;2022-12-07T05:26:20;4.70;99.90
16229;DHT22;8222;51.462;12.630;2022-12-07T05:28:50;4.60;99.90
16229;DHT22;8222;51.462;12.630;2022-12-07T05:31:16;4.60;99.90
16229;DHT22;8222;51.462;12.630;2022-12-07T05:33:42;4.40;99.90
16229;DHT22;8222;51.462;12.630;2022-12-07T05:36:07;4.40;99.90
16229;DHT22;8222;51.462;12.630;2022-12-07T05:38:35;4.40;99.90
16229;DHT22;8222;51.462;12.630;2022-12-07T05:41:02;4.80;99.90
16229;DHT22;8222;51.462;12.630;2022-12-07T05:43:29;5.00;99.90
16229;DHT22;8222;51.462;12.630;2022-12-07T05:45:54;4.60;99.90
16229;DHT22;8222;51.462;12.630;2022-12-07T05:48:20;4.60;99.90
16229;DHT22;8222;51.462;12.630;2022-12-07T05:50:50;4.70;99.90
16229;DHT22;8222;51.462;12.630;2022-12-07T05:53:18;4.70;99.90
16229;DHT22;8222;51.462;12.630;2022-12-07T05:55:44;4.70;99.90
16229;DHT22;8222;51.462;12.630;2022-12-07T05:58:10;4.80;99.90
16229;DHT22;8222;51.462;12.630;2022-12-07T06:00:57;4.80;99.90
16229;DHT22;8222;51.462;12.630;2022-12-07T06:03:27;4.90;99.90
16229;DHT22;8222;51.462;12.630;2022-12-07T06:05:53;5.30;99.90
16229;DHT22;8222;51.462;12.630;2022-12-07T06:08:19;5.10;99.90
16229;DHT22;8222;51.462;12.630;2022-12-07T06:10:46;4.70;99.90
16229;DHT22;8222;51.462;12.630;2022-12-07T06:13:34;4.70;99.90
16229;DHT22;8222;51.462;12.630;2022-12-07T06:16:00;4.80;99.90
16229;DHT22;8222;51.462;12.630;2022-12-07T06:18:25;4.80;99.90
16229;DHT22;8222;51.462;12.630;2022-12-07T06:20:51;4.70;99.90
16229;DHT22;8222;51.462;12.630;2022-12-07T06:23:16;5.30;99.90
16229;DHT22;8222;51.462;12.630;2022-12-07T06:25:45;4.60;99.90
16229;DHT22;8222;51.462;12.630;2022-12-07T06:28:11;4.70;99.90
16229;DHT22;8222;51.462;12.630;2022-12-07T06:30:36;4.70;99.90
16229;DHT22;8222;51.462;12.630;2022-12-07T06:33:02;4.70;99.90
16229;DHT22;8222;51.462;12.630;2022-12-07T06:35:30;4.60;99.90
16229;DHT22;8222;51.462;12.630;2022-12-07T06:37:57;4.60;99.90
16229;DHT22;8222;51.462;12.630;2022-12-07T06:40:23;4.70;99.90
16229;DHT22;8222;51.462;12.630;2022-12-07T06:42:48;4.70;99.90
16229;DHT22;8222;51.462;12.630;2022-12-07T06:45:14;4.70;99.90
16229;DHT22;8222;51.462;12.630;2022-12-07T06:47:40;4.70;99.90
16229;DHT22;8222;51.462;12.630;2022-12-07T06:50:07;4.80;99.90
16229;DHT22;8222;51.462;12.630;2022-12-07T06:52:33;4.70;99.90
16229;DHT22;8222;51.462;12.630;2022-12-07T06:54:59;4.70;99.90
16229;DHT22;8222;51.462;12.630;2022-12-07T06:57:25;4.90;99.90
16229;DHT22;8222;51.462;12.630;2022-12-07T06:59:51;4.80;99.90
16229;DHT22;8222;51.462;12.630;2022-12-07T07:02:17;4.70;99.90
16229;DHT22;8222;51.462;12.630;2022-12-07T07:04:43;4.70;99.90
16229;DHT22;8222;51.462;12.630;2022-12-07T07:07:08;4.70;99.90
16229;DHT22;8222;51.462;12.630;2022-12-07T07:09:34;5.00;99.90
16229;DHT22;8222;51.462;12.630;2022-12-07T07:12:02;4.90;99.90
16229;DHT22;8222;51.462;12.630;2022-12-07T07:14:28;4.80;99.90
16229;DHT22;8222;51.462;12.630;2022-12-07T07:16:56;4.80;99.90
16229;DHT22;8222;51.462;12.630;2022-12-07T07:19:22;4.90;99.90
16229;DHT22;8222;51.462;12.630;2022-12-07T07:21:50;5.00;99.90
16229;DHT22;8222;51.462;12.630;2022-12-07T07:24:17;5.10;99.90
16229;DHT22;8222;51.462;12.630;2022-12-07T07:26:45;4.90;99.90
16229;DHT22;8222;51.462;12.630;2022-12-07T07:29:13;5.10;99.90
16229;DHT22;8222;51.462;12.630;2022-12-07T07:31:39;5.00;99.90
16229;DHT22;8222;51.462;12.630;2022-12-07T07:34:04;5.10;99.90
16229;DHT22;8222;51.462;12.630;2022-12-07T07:36:30;5.10;99.90
16229;DHT22;8222;51.462;12.630;2022-12-07T07:38:56;5.20;99.90
16229;DHT22;8222;51.462;12.630;2022-12-07T07:41:21;5.20;99.90
16229;DHT22;8222;51.462;12.630;2022-12-07T07:43:47;5.30;99.90
16229;DHT22;8222;51.462;12.630;2022-12-07T07:46:12;5.20;99.90
16229;DHT22;8222;51.462;12.630;2022-12-07T07:48:38;5.30;99.90
16229;DHT22;8222;51.462;12.630;2022-12-07T07:51:07;5.40;99.90
16229;DHT22;8222;51.462;12.630;2022-12-07T07:53:34;5.50;99.90
16229;DHT22;8222;51.462;12.630;2022-12-07T07:55:59;5.40;99.90
16229;DHT22;8222;51.462;12.630;2022-12-07T07:58:27;5.50;99.90
16229;DHT22;8222;51.462;12.630;2022-12-07T08:00:54;5.50;99.90
16229;DHT22;8222;51.462;12.630;2022-12-07T08:03:20;5.50;99.90
16229;DHT22;8222;51.462;12.630;2022-12-07T08:05:46;5.60;99.90
16229;DHT22;8222;51.462;12.630;2022-12-07T08:08:14;5.40;99.90
16229;DHT22;8222;51.462;12.630;2022-12-07T08:10:40;5.40;99.90
16229;DHT22;8222;51.462;12.630;2022-12-07T08:13:07;5.30;99.90
16229;DHT22;8222;51.462;12.630;2022-12-07T08:15:37;5.40;99.90
16229;DHT22;8222;51.462;12.630;2022-12-07T08:18:04;5.40;99.90
16229;DHT22;8222;51.462;12.630;2022-12-07T08:20:31;5.40;99.90
16229;DHT22;8222;51.462;12.630;2022-12-07T08:22:57;5.40;99.90
16229;DHT22;8222;51.462;12.630;2022-12-07T08:25:23;5.40;99.90
16229;DHT22;8222;51.462;12.630;2022-12-07T08:27:49;5.50;99.90
16229;DHT22;8222;51.462;12.630;2022-12-07T08:30:15;5.60;99.90
16229;DHT22;8222;51.462;12.630;2022-12-07T08:32:44;5.70;99.90
16229;DHT22;8222;51.462;12.630;2022-12-07T08:35:13;5.80;99.90
16229;DHT22;8222;51.462;12.630;2022-12-07T08:37:39;6.50;99.90
16229;DHT22;8222;51.462;12.630;2022-12-07T08:40:07;6.10;99.90
16229;DHT22;8222;51.462;12.630;2022-12-07T08:42:33;6.20;99.90
16229;DHT22;8222;51.462;12.630;2022-12-07T08:45:11;6.20;99.90
16229;DHT22;8222;51.462;12.630;2022-12-07T08:47:46;6.20;99.90
16229;DHT22;8222;51.462;12.630;2022-12-07T08:50:14;6.40;99.90
16229;DHT22;8222;51.462;12.630;2022-12-07T08:52:41;6.20;99.90
16229;DHT22;8222;51.462;12.630;2022-12-07T08:55:10;6.20;99.90
16229;DHT22;8222;51.462;12.630;2022-12-07T08:57:36;6.30;99.90
16229;DHT22;8222;51.462;12.630;2022-12-07T09:00:04;6.40;99.90
16229;DHT22;8222;51.462;12.630;2022-12-07T09:02:31;6.30;99.90
16229;DHT22;8222;51.462;12.630;2022-12-07T09:04:58;6.30;99.90
16229;DHT22;8222;51.462;12.630;2022-12-07T09:07:24;6.60;99.90
16229;DHT22;8222;51.462;12.630;2022-12-07T09:09:50;6.50;99.90
16229;DHT22;8222;51.462;12.630;2022-12-07T09:12:16;7.10;99.90
16229;DHT22;8222;51.462;12.630;2022-12-07T09:14:42;6.50;99.90
16229;DHT22;8222;51.462;12.630;2022-12-07T09:17:15;6.60;99.90
16229;DHT22;8222;51.462;12.630;2022-12-07T09:19:42;6.70;99.90
16229;DHT22;8222;51.462;12.630;2022-12-07T09:22:09;7.00;99.90
16229;DHT22;8222;51.462;12.630;2022-12-07T09:24:34;6.80;99.90
16229;DHT22;8222;51.462;12.630;2022-12-07T09:27:00;6.90;99.90
16229;DHT22;8222;51.462;12.630;2022-12-07T09:29:28;7.00;99.90
16229;DHT22;8222;51.462;12.630;2022-12-07T09:31:53;7.70;99.90
16229;DHT22;8222;51.462;12.630;2022-12-07T09:34:22;7.10;99.90
16229;DHT22;8222;51.462;12.630;2022-12-07T09:36:51;6.90;99.90
16229;DHT22;8222;51.462;12.630;2022-12-07T09:39:19;6.80;99.90
16229;DHT22;8222;51.462;12.630;2022-12-07T09:41:45;6.90;99.90
16229;DHT22;8222;51.462;12.630;2022-12-07T09:44:23;7.10;99.90
16229;DHT22;8222;51.462;12.630;2022-12-07T09:46:52;7.10;99.90
16229;DHT22;8222;51.462;12.630;2022-12-07T09:49:20;7.20;99.90
16229;DHT22;8222;51.462;12.630;2022-12-07T09:51:47;7.30;99.90
16229;DHT22;8222;51.462;12.630;2022-12-07T09:54:15;7.30;99.90
16229;DHT22;8222;51.462;12.630;2022-12-07T09:56:42;7.40;99.90
16229;DHT22;8222;51.462;12.630;2022-12-07T09:59:13;7.50;99.90
16229;DHT22;8222;51.462;12.630;2022-12-07T10:01:42;7.50;99.90
16229;DHT22;8222;51.462;12.630;2022-12-07T10:04:23;7.50;99.90
16229;DHT22;8222;51.462;12.630;2022-12-07T10:06:49;7.30;99.90
16229;DHT22;8222;51.462;12.630;2022-12-07T10:09:19;7.20;99.90
16229;DHT22;8222;51.462;12.630;2022-12-07T10:12:05;7.10;99.90
16229;DHT22;8222;51.462;12.630;2022-12-07T10:14:35;7.10;99.90
16229;DHT22;8222;51.462;12.630;2022-12-07T10:19:48;6.90;99.90
16229;DHT22;8222;51.462;12.630;2022-12-07T10:22:18;6.90;99.90
16229;DHT22;8222;51.462;12.630;2022-12-07T10:24:46;6.90;99.90
16229;DHT22;8222;51.462;12.630;2022-12-07T10:27:26;7.00;99.90
16229;DHT22;8222;51.462;12.630;2022-12-07T10:29:53;7.00;99.90
16229;DHT22;8222;51.462;12.630;2022-12-07T10:34:46;7.00;99.90
16229;DHT22;8222;51.462;12.630;2022-12-07T10:39:53;7.20;99.90
16229;DHT22;8222;51.462;12.630;2022-12-07T10:42:29;7.30;99.90
16229;DHT22;8222;51.462;12.630;2022-12-07T10:45:13;7.30;99.90
16229;DHT22;8222;51.462;12.630;2022-12-07T10:47:47;7.40;99.90
16229;DHT22;8222;51.462;12.630;2022-12-07T10:58:40;7.30;99.90
16229;DHT22;8222;51.462;12.630;2022-12-07T11:01:24;7.40;99.90
16229;DHT22;8222;51.462;12.630;2022-12-07T11:04:24;7.50;99.90
16229;DHT22;8222;51.462;12.630;2022-12-07T11:10:08;7.60;99.90
16229;DHT22;8222;51.462;12.630;2022-12-07T11:12:41;7.70;99.90
16229;DHT22;8222;51.462;12.630;2022-12-07T11:21:20;7.70;99.90
16229;DHT22;8222;51.462;12.630;2022-12-07T11:24:04;7.70;99.90
16229;DHT22;8222;51.462;12.630;2022-12-07T11:37:34;7.40;99.90
16229;DHT22;8222;51.462;12.630;2022-12-07T11:40:37;7.20;99.90
16229;DHT22;8222;51.462;12.630;2022-12-07T11:43:28;7.20;99.90
16229;DHT22;8222;51.462;12.630;2022-12-07T11:46:06;7.30;99.90
16229;DHT22;8222;51.462;12.630;2022-12-07T11:51:12;7.30;99.90
16229;DHT22;8222;51.462;12.630;2022-12-07T11:53:58;7.20;99.90
16229;DHT22;8222;51.462;12.630;2022-12-07T11:56:27;7.20;99.90
16229;DHT22;8222;51.462;12.630;2022-12-07T11:59:39;7.10;99.90
16229;DHT22;8222;51.462;12.630;2022-12-07T12:02:16;7.20;99.90
16229;DHT22;8222;51.462;12.630;2022-12-07T12:07:40;7.00;99.90
16229;DHT22;8222;51.462;12.630;2022-12-07T12:10:21;7.00;99.90
16229;DHT22;8222;51.462;12.630;2022-12-07T12:21:02;7.10;99.90
16229;DHT22;8222;51.462;12.630;2022-12-07T12:23:40;7.10;99.90
16229;DHT22;8222;51.462;12.630;2022-12-07T12:26:14;7.00;99.90
16229;DHT22;8222;51.462;12.630;2022-12-07T12:28:58;7.00;99.90
16229;DHT22;8222;51.462;12.630;2022-12-07T12:33:56;7.40;99.90
16229;DHT22;8222;51.462;12.630;2022-12-07T12:48:02;7.20;99.90
16229;DHT22;8222;51.462;12.630;2022-12-07T12:50:37;7.30;99.90
16229;DHT22;8222;51.462;12.630;2022-12-07T12:55:45;7.30;99.90
16229;DHT22;8222;51.462;12.630;2022-12-07T13:03:54;7.40;99.90
16229;DHT22;8222;51.462;12.630;2022-12-07T13:06:35;7.20;99.90
16229;DHT22;8222;51.462;12.630;2022-12-07T13:09:01;7.10;99.90
16229;DHT22;8222;51.462;12.630;2022-12-07T13:17:01;7.20;99.90
16229;DHT22;8222;51.462;12.630;2022-12-07T13:19:53;7.20;99.90
16229;DHT22;8222;51.462;12.630;2022-12-07T13:25:12;6.30;99.90
16229;DHT22;8222;51.462;12.630;2022-12-07T13:27:54;6.00;99.90
16229;DHT22;8222;51.462;12.630;2022-12-07T13:30:22;5.60;99.90
16229;DHT22;8222;51.462;12.630;2022-12-07T13:32:55;5.20;99.90
16229;DHT22;8222;51.462;12.630;2022-12-07T13:35:35;5.20;99.90
16229;DHT22;8222;51.462;12.630;2022-12-07T13:38:16;5.10;99.90
16229;DHT22;8222;51.462;12.630;2022-12-07T13:40:59;5.00;99.90
16229;DHT22;8222;51.462;12.630;2022-12-07T13:43:25;4.80;99.90
16229;DHT22;8222;51.462;12.630;2022-12-07T13:45:59;4.90;99.90
16229;DHT22;8222;51.462;12.630;2022-12-07T13:48:43;4.90;99.90
16229;DHT22;8222;51.462;12.630;2022-12-07T13:51:23;5.50;99.90
16229;DHT22;8222;51.462;12.630;2022-12-07T13:53:53;5.20;99.90
16229;DHT22;8222;51.462;12.630;2022-12-07T13:56:22;5.70;99.90
16229;DHT22;8222;51.462;12.630;2022-12-07T13:58:50;5.40;99.90
16229;DHT22;8222;51.462;12.630;2022-12-07T14:01:17;5.60;99.90
16229;DHT22;8222;51.462;12.630;2022-12-07T14:03:45;5.70;99.90
16229;DHT22;8222;51.462;12.630;2022-12-07T14:06:26;5.80;99.90
16229;DHT22;8222;51.462;12.630;2022-12-07T14:09:29;5.80;99.90
16229;DHT22;8222;51.462;12.630;2022-12-07T14:11:56;6.00;99.90
16229;DHT22;8222;51.462;12.630;2022-12-07T14:14:26;6.20;99.90
16229;DHT22;8222;51.462;12.630;2022-12-07T14:17:02;6.10;99.90
16229;DHT22;8222;51.462;12.630;2022-12-07T14:22:34;6.20;99.90
16229;DHT22;8222;51.462;12.630;2022-12-07T14:25:21;8.50;99.90
16229;DHT22;8222;51.462;12.630;2022-12-07T14:30:19;6.30;99.90
16229;DHT22;8222;51.462;12.630;2022-12-07T14:32:45;6.20;99.90
16229;DHT22;8222;51.462;12.630;2022-12-07T14:35:15;6.20;99.90
16229;DHT22;8222;51.462;12.630;2022-12-07T14:37:43;6.20;99.90
16229;DHT22;8222;51.462;12.630;2022-12-07T14:40:18;6.20;99.90
16229;DHT22;8222;51.462;12.630;2022-12-07T14:42:45;6.20;99.90
16229;DHT22;8222;51.462;12.630;2022-12-07T14:45:20;6.10;99.90
16229;DHT22;8222;51.462;12.630;2022-12-07T14:47:46;6.20;99.90
16229;DHT22;8222;51.462;12.630;2022-12-07T14:50:19;6.20;99.90
16229;DHT22;8222;51.462;12.630;2022-12-07T14:52:50;6.30;99.90
16229;DHT22;8222;51.462;12.630;2022-12-07T14:55:28;6.20;99.90
16229;DHT22;8222;51.462;12.630;2022-12-07T14:57:55;6.40;99.90
16229;DHT22;8222;51.462;12.630;2022-12-07T15:00:25;6.00;99.90
16229;DHT22;8222;51.462;12.630;2022-12-07T15:02:51;5.90;99.90
16229;DHT22;8222;51.462;12.630;2022-12-07T15:05:17;5.80;99.90
16229;DHT22;8222;51.462;12.630;2022-12-07T15:07:44;5.70;99.90
16229;DHT22;8222;51.462;12.630;2022-12-07T15:10:25;5.80;99.90
16229;DHT22;8222;51.462;12.630;2022-12-07T15:12:58;5.80;99.90
16229;DHT22;8222;51.462;12.630;2022-12-07T15:15:45;5.60;99.90
16229;DHT22;8222;51.462;12.630;2022-12-07T15:18:13;5.50;99.90
16229;DHT22;8222;51.462;12.630;2022-12-07T15:20:39;5.60;99.90
16229;DHT22;8222;51.462;12.630;2022-12-07T15:23:07;5.70;99.90
16229;DHT22;8222;51.462;12.630;2022-12-07T15:25:35;5.80;99.90
16229;DHT22;8222;51.462;12.630;2022-12-07T15:28:01;5.90;99.90
16229;DHT22;8222;51.462;12.630;2022-12-07T15:30:29;5.90;99.90
16229;DHT22;8222;51.462;12.630;2022-12-07T15:32:55;6.00;99.90
16229;DHT22;8222;51.462;12.630;2022-12-07T15:35:25;5.90;99.90
16229;DHT22;8222;51.462;12.630;2022-12-07T15:37:50;5.80;99.90
16229;DHT22;8222;51.462;12.630;2022-12-07T15:40:16;5.80;99.90
16229;DHT22;8222;51.462;12.630;2022-12-07T15:42:42;5.70;99.90
16229;DHT22;8222;51.462;12.630;2022-12-07T15:45:10;5.70;99.90
16229;DHT22;8222;51.462;12.630;2022-12-07T15:47:38;5.70;99.90
16229;DHT22;8222;51.462;12.630;2022-12-07T15:50:06;5.90;99.90
16229;DHT22;8222;51.462;12.630;2022-12-07T15:52:32;5.80;99.90
16229;DHT22;8222;51.462;12.630;2022-12-07T15:54:58;5.90;99.90
16229;DHT22;8222;51.462;12.630;2022-12-07T15:57:29;5.90;99.90
16229;DHT22;8222;51.462;12.630;2022-12-07T15:59:56;6.00;99.90
16229;DHT22;8222;51.462;12.630;2022-12-07T16:02:23;6.10;99.90
16229;DHT22;8222;51.462;12.630;2022-12-07T16:04:49;6.10;99.90
16229;DHT22;8222;51.462;12.630;2022-12-07T16:07:16;6.10;99.90
16229;DHT22;8222;51.462;12.630;2022-12-07T16:09:42;6.10;99.90
16229;DHT22;8222;51.462;12.630;2022-12-07T16:12:08;6.00;99.90
16229;DHT22;8222;51.462;12.630;2022-12-07T16:14:34;6.00;99.90
16229;DHT22;8222;51.462;12.630;2022-12-07T16:17:02;5.90;99.90
16229;DHT22;8222;51.462;12.630;2022-12-07T16:19:30;5.90;99.90
16229;DHT22;8222;51.462;12.630;2022-12-07T16:21:57;6.00;99.90
16229;DHT22;8222;51.462;12.630;2022-12-07T16:24:25;6.00;99.90
16229;DHT22;8222;51.462;12.630;2022-12-07T16:26:54;5.90;99.90
16229;DHT22;8222;51.462;12.630;2022-12-07T16:29:21;5.80;99.90
16229;DHT22;8222;51.462;12.630;2022-12-07T16:31:48;5.70;99.90
16229;DHT22;8222;51.462;12.630;2022-12-07T16:34:16;5.70;99.90
16229;DHT22;8222;51.462;12.630;2022-12-07T16:36:42;5.60;99.90
16229;DHT22;8222;51.462;12.630;2022-12-07T16:39:09;5.60;99.90
16229;DHT22;8222;51.462;12.630;2022-12-07T16:41:38;5.60;99.90
16229;DHT22;8222;51.462;12.630;2022-12-07T16:44:06;5.50;99.90
16229;DHT22;8222;51.462;12.630;2022-12-07T16:46:35;5.40;99.90
16229;DHT22;8222;51.462;12.630;2022-12-07T16:49:02;5.50;99.90
16229;DHT22;8222;51.462;12.630;2022-12-07T16:51:28;5.60;99.90
16229;DHT22;8222;51.462;12.630;2022-12-07T16:53:59;6.00;99.90
16229;DHT22;8222;51.462;12.630;2022-12-07T16:56:25;5.50;99.90
16229;DHT22;8222;51.462;12.630;2022-12-07T16:58:57;5.50;99.90
16229;DHT22;8222;51.462;12.630;2022-12-07T17:01:23;5.50;99.90
16229;DHT22;8222;51.462;12.630;2022-12-07T17:03:48;5.50;99.90
16229;DHT22;8222;51.462;12.630;2022-12-07T17:06:25;5.50;99.90
16229;DHT22;8222;51.462;12.630;2022-12-07T17:08:51;5.40;99.90
16229;DHT22;8222;51.462;12.630;2022-12-07T17:11:19;6.10;99.90
16229;DHT22;8222;51.462;12.630;2022-12-07T17:13:45;5.50;99.90
16229;DHT22;8222;51.462;12.630;2022-12-07T17:16:30;5.70;99.90
16229;DHT22;8222;51.462;12.630;2022-12-07T17:18:56;5.70;99.90
16229;DHT22;8222;51.462;12.630;2022-12-07T17:21:22;5.70;99.90
16229;DHT22;8222;51.462;12.630;2022-12-07T17:23:50;5.80;99.90
16229;DHT22;8222;51.462;12.630;2022-12-07T17:26:27;5.80;99.90
16229;DHT22;8222;51.462;12.630;2022-12-07T17:28:56;6.30;99.90
16229;DHT22;8222;51.462;12.630;2022-12-07T17:31:26;6.50;99.90
16229;DHT22;8222;51.462;12.630;2022-12-07T17:33:52;5.70;99.90
16229;DHT22;8222;51.462;12.630;2022-12-07T17:36:18;5.50;99.90
16229;DHT22;8222;51.462;12.630;2022-12-07T17:38:47;5.40;99.90
16229;DHT22;8222;51.462;12.630;2022-12-07T17:41:18;5.50;99.90
16229;DHT22;8222;51.462;12.630;2022-12-07T17:44:05;5.60;99.90
16229;DHT22;8222;51.462;12.630;2022-12-07T17:46:31;5.50;99.90
16229;DHT22;8222;51.462;12.630;2022-12-07T17:48:58;5.80;99.90
16229;DHT22;8222;51.462;12.630;2022-12-07T17:51:24;5.60;99.90
16229;DHT22;8222;51.462;12.630;2022-12-07T17:54:09;5.80;99.90
16229;DHT22;8222;51.462;12.630;2022-12-07T17:56:37;5.70;99.90
16229;DHT22;8222;51.462;12.630;2022-12-07T17:59:04;5.60;99.90